createdAt,value
2018-05-24T00:01:06.345Z,76.08
2018-05-24T00:03:32.629Z,73.96
2018-05-24T00:05:58.905Z,75.65
2018-05-24T00:08:25.183Z,74.68
2018-05-24T00:10:51.449Z,74.69
2018-05-24T00:13:48.305Z,76.57
2018-05-24T00:16:14.561Z,74.12
2018-05-24T00:18:40.825Z,75.41
2018-05-24T00:21:07.085Z,74.59
2018-05-24T00:23:33.341Z,74.62
2018-05-24T00:26:00.365Z,74.20
2018-05-24T00:28:26.629Z,75.12
2018-05-24T00:30:53.658Z,74.93
2018-05-24T00:33:19.944Z,75.08
2018-05-24T00:35:46.221Z,76.21
2018-05-24T00:38:12.494Z,76.21
2018-05-24T00:40:38.755Z,74.42
2018-05-24T00:43:05.055Z,75.25
2018-05-24T00:45:32.089Z,75.89
2018-05-24T00:47:58.375Z,75.07
2018-05-24T00:50:24.637Z,74.33
2018-05-24T00:52:50.886Z,77.25
2018-05-24T00:55:35.669Z,77.85
2018-05-24T00:58:01.929Z,78.01
2018-05-24T01:00:28.203Z,76.04
2018-05-24T01:02:54.475Z,76.41
2018-05-24T01:05:21.545Z,74.19
2018-05-24T01:07:47.820Z,77.04
2018-05-24T01:10:14.092Z,78.57
2018-05-24T01:12:41.103Z,75.71
2018-05-24T01:15:07.431Z,75.32
2018-05-24T01:17:33.705Z,78.55
2018-05-24T01:20:00.002Z,77.52
2018-05-24T01:22:26.258Z,79.21
2018-05-24T01:24:52.514Z,80.10
2018-05-24T01:27:18.785Z,77.10
2018-05-24T01:29:45.112Z,77.51
2018-05-24T01:32:12.097Z,76.74
2018-05-24T01:34:38.392Z,77.28
2018-05-24T01:37:24.075Z,78.59
2018-05-24T01:39:51.092Z,79.21
2018-05-24T01:42:17.385Z,79.12
2018-05-24T01:44:43.634Z,80.07
2018-05-24T01:47:09.992Z,79.85
2018-05-24T01:49:36.300Z,78.85
2018-05-24T01:52:03.333Z,79.01
2018-05-24T01:54:29.646Z,78.15
2018-05-24T01:56:55.935Z,77.14
2018-05-24T01:59:22.240Z,77.04
2018-05-24T02:01:48.512Z,77.84
2018-05-24T02:04:14.789Z,75.68
2018-05-24T02:06:42.195Z,76.62
2018-05-24T02:09:09.310Z,78.82
2018-05-24T02:11:36.325Z,78.37
2018-05-24T02:14:02.611Z,77.57
2018-05-24T02:16:28.925Z,76.91
2018-05-24T02:18:55.913Z,77.66
2018-05-24T02:21:22.162Z,75.30
2018-05-24T02:23:48.436Z,77.44
2018-05-24T02:26:14.684Z,75.10
2018-05-24T02:28:40.979Z,76.98
2018-05-24T02:31:07.273Z,77.89
2018-05-24T02:33:34.289Z,77.49
2018-05-24T02:36:00.701Z,76.50
2018-05-24T02:38:27.554Z,76.44
2018-05-24T02:40:53.869Z,77.28
2018-05-24T02:43:20.149Z,78.61
2018-05-24T02:45:46.385Z,77.71
2018-05-24T02:48:12.647Z,77.58
2018-05-24T02:50:38.897Z,78.34
2018-05-24T02:53:05.965Z,77.90
2018-05-24T02:55:32.221Z,77.44
2018-05-24T02:57:58.529Z,76.50
2018-05-24T03:00:25.583Z,77.42
2018-05-24T03:02:51.846Z,75.95
2018-05-24T03:05:18.085Z,76.98
2018-05-24T03:07:44.337Z,75.07
2018-05-24T03:10:10.590Z,76.83
2018-05-24T03:12:37.619Z,75.79
2018-05-24T03:15:03.909Z,74.87
2018-05-24T03:17:30.971Z,75.34
2018-05-24T03:19:57.243Z,74.87
2018-05-24T03:22:23.541Z,73.83
2018-05-24T03:24:49.843Z,73.82
2018-05-24T03:27:16.144Z,74.01
2018-05-24T03:29:42.456Z,73.23
2018-05-24T03:32:08.712Z,74.70
2018-05-24T03:34:34.992Z,73.88
2018-05-24T03:37:01.297Z,74.42
2018-05-24T03:39:27.541Z,75.15
2018-05-24T03:41:53.853Z,73.78
2018-05-24T03:44:20.113Z,73.70
2018-05-24T03:46:46.420Z,74.63
2018-05-24T03:49:12.746Z,73.93
2018-05-24T03:51:39.035Z,75.68
2018-05-24T03:54:05.300Z,75.33
2018-05-24T03:56:32.334Z,73.98
2018-05-24T03:59:15.733Z,76.31
2018-05-24T04:04:57.793Z,77.17
2018-05-24T04:07:24.058Z,75.73
2018-05-24T04:09:50.354Z,76.11
2018-05-24T04:12:17.401Z,76.22
2018-05-24T04:14:44.433Z,76.77
2018-05-24T04:17:10.741Z,76.19
2018-05-24T04:19:37.089Z,76.36
2018-05-24T04:22:03.416Z,75.64
2018-05-24T04:24:29.715Z,75.41
2018-05-24T04:26:56.114Z,76.22
2018-05-24T04:29:22.376Z,75.88
2018-05-24T04:31:49.457Z,75.43
2018-05-24T04:34:15.721Z,75.56
2018-05-24T04:36:42.030Z,75.78
2018-05-24T04:39:08.314Z,75.76
2018-05-24T04:41:35.401Z,75.52
2018-05-24T04:44:01.700Z,75.80
2018-05-24T04:46:28.014Z,75.44
2018-05-24T04:48:54.329Z,76.14
2018-05-24T04:51:20.605Z,75.63
2018-05-24T04:53:46.847Z,75.28
2018-05-24T04:56:13.613Z,75.14
2018-05-24T04:58:41.178Z,75.26
2018-05-24T05:01:08.267Z,75.20
2018-05-24T05:03:34.565Z,75.21
2018-05-24T05:06:01.593Z,74.85
2018-05-24T05:08:27.897Z,74.34
2018-05-24T05:10:54.392Z,74.44
2018-05-24T05:13:21.511Z,75.44
2018-05-24T05:15:47.726Z,75.04
2018-05-24T05:18:13.977Z,73.99
2018-05-24T05:20:40.277Z,73.45
2018-05-24T05:23:06.807Z,74.27
2018-05-24T05:25:33.038Z,75.16
2018-05-24T05:28:00.209Z,73.73
2018-05-24T05:30:26.478Z,74.89
2018-05-24T05:32:52.776Z,74.40
2018-05-24T05:35:19.065Z,73.88
2018-05-24T05:37:45.390Z,74.20
2018-05-24T05:40:11.692Z,74.33
2018-05-24T05:42:38.002Z,74.56
2018-05-24T05:45:05.050Z,73.98
2018-05-24T05:47:31.370Z,73.93
2018-05-24T05:49:57.669Z,73.93
2018-05-24T05:52:24.005Z,73.97
2018-05-24T05:54:50.953Z,73.87
2018-05-24T05:57:17.298Z,73.93
2018-05-24T05:59:43.598Z,73.65
2018-05-24T06:02:13.542Z,73.96
2018-05-24T06:04:39.994Z,73.30
2018-05-24T06:07:06.334Z,74.19
2018-05-24T06:09:32.670Z,74.30
2018-05-24T06:11:58.942Z,73.80
2018-05-24T06:14:26.006Z,73.45
2018-05-24T06:16:52.393Z,73.74
2018-05-24T06:19:18.669Z,73.47
2018-05-24T06:21:44.974Z,72.46
2018-05-24T06:24:11.524Z,72.84
2018-05-24T06:26:37.786Z,72.88
2018-05-24T06:29:04.181Z,72.46
2018-05-24T06:31:30.524Z,72.21
2018-05-24T06:33:56.829Z,72.42
2018-05-24T06:36:23.858Z,72.33
2018-05-24T06:38:50.212Z,72.17
2018-05-24T06:41:17.221Z,72.04
2018-05-24T06:43:43.569Z,71.77
2018-05-24T06:46:09.870Z,72.17
2018-05-24T06:48:36.133Z,73.08
2018-05-24T06:51:02.526Z,73.02
2018-05-24T06:53:28.893Z,73.10
2018-05-24T06:55:55.185Z,74.29
2018-05-24T06:58:22.240Z,73.82
2018-05-24T07:00:49.309Z,74.37
2018-05-24T07:03:15.610Z,73.85
2018-05-24T07:05:41.877Z,74.91
2018-05-24T07:08:08.180Z,74.83
2018-05-24T07:10:34.471Z,75.75
2018-05-24T07:13:00.731Z,74.39
2018-05-24T07:15:27.023Z,73.64
2018-05-24T07:17:53.278Z,74.06
2018-05-24T07:20:19.546Z,76.24
2018-05-24T07:22:45.832Z,74.76
2018-05-24T07:25:12.135Z,74.94
2018-05-24T07:27:38.454Z,76.19
2018-05-24T07:30:04.757Z,76.44
2018-05-24T07:32:31.084Z,77.09
2018-05-24T07:34:57.381Z,75.20
2018-05-24T07:37:23.704Z,75.33
2018-05-24T07:39:50.119Z,74.53
2018-05-24T07:42:16.297Z,75.09
2018-05-24T07:44:43.377Z,74.87
2018-05-24T07:47:09.653Z,74.68
2018-05-24T07:49:35.955Z,73.65
2018-05-24T07:52:02.427Z,73.39
2018-05-24T07:54:28.657Z,73.05
2018-05-24T07:56:54.997Z,74.47
2018-05-24T07:59:21.273Z,73.29
2018-05-24T08:01:48.373Z,72.40
2018-05-24T08:04:14.702Z,72.50
2018-05-24T08:06:40.965Z,72.35
2018-05-24T08:09:07.253Z,72.23
2018-05-24T08:11:33.529Z,71.39
2018-05-24T08:13:59.854Z,70.51
2018-05-24T08:16:26.141Z,70.50
2018-05-24T08:18:53.189Z,70.09
2018-05-24T08:21:19.444Z,70.26
2018-05-24T08:23:45.746Z,68.33
2018-05-24T08:26:12.112Z,69.76
2018-05-24T08:28:38.389Z,68.14
2018-05-24T08:31:04.665Z,68.15
2018-05-24T08:33:30.933Z,68.35
2018-05-24T08:35:57.965Z,68.62
2018-05-24T08:38:24.986Z,68.11
2018-05-24T08:40:51.332Z,67.84
2018-05-24T08:43:17.712Z,66.22
2018-05-24T08:45:44.074Z,67.22
2018-05-24T08:48:10.402Z,65.93
2018-05-24T08:50:36.711Z,66.87
2018-05-24T08:53:03.002Z,67.14
2018-05-24T08:55:29.353Z,68.30
2018-05-24T08:57:56.394Z,69.89
2018-05-24T09:00:22.801Z,69.51
2018-05-24T09:02:49.118Z,70.53
2018-05-24T09:05:16.137Z,71.84
2018-05-24T09:07:42.458Z,71.15
2018-05-24T09:10:08.728Z,71.85
2018-05-24T09:12:35.010Z,71.02
2018-05-24T09:15:01.306Z,72.22
2018-05-24T09:17:28.300Z,71.75
2018-05-24T09:19:54.578Z,71.95
2018-05-24T09:22:20.893Z,71.68
2018-05-24T09:24:47.209Z,72.52
2018-05-24T09:27:13.514Z,72.69
2018-05-24T09:29:40.517Z,72.55
2018-05-24T09:32:06.797Z,73.04
2018-05-24T09:34:33.808Z,72.47
2018-05-24T09:37:00.101Z,73.37
2018-05-24T09:39:26.406Z,73.12
2018-05-24T09:41:52.753Z,74.11
2018-05-24T09:44:19.808Z,73.12
2018-05-24T09:46:46.846Z,73.16
2018-05-24T09:49:13.171Z,73.17
2018-05-24T09:51:39.463Z,73.91
2018-05-24T09:54:05.746Z,73.94
2018-05-24T09:56:32.019Z,73.73
2018-05-24T09:58:59.032Z,73.04
2018-05-24T10:01:25.310Z,72.99
2018-05-24T10:03:51.559Z,73.53
2018-05-24T10:06:17.842Z,73.25
2018-05-24T10:08:44.112Z,73.34
2018-05-24T10:11:10.379Z,72.97
2018-05-24T10:13:36.643Z,73.36
2018-05-24T10:16:02.981Z,73.15
2018-05-24T10:18:29.264Z,73.56
2018-05-24T10:20:55.561Z,73.72
2018-05-24T10:23:21.822Z,74.21
2018-05-24T10:25:48.853Z,74.00
2018-05-24T10:28:15.133Z,74.35
2018-05-24T10:30:41.404Z,74.34
2018-05-24T10:33:07.714Z,74.35
2018-05-24T10:35:34.026Z,74.77
2018-05-24T10:38:01.034Z,74.58
2018-05-24T10:40:27.349Z,74.80
2018-05-24T10:42:53.657Z,74.56
2018-05-24T10:45:19.961Z,74.27
2018-05-24T10:47:46.221Z,73.37
2018-05-24T10:50:13.289Z,73.71
2018-05-24T10:52:39.584Z,73.37
2018-05-24T10:55:05.898Z,73.41
2018-05-24T10:57:32.209Z,73.16
2018-05-24T10:59:58.501Z,72.95
2018-05-24T11:02:25.602Z,73.20
2018-05-24T11:04:52.729Z,73.46
2018-05-24T11:07:19.068Z,75.53
2018-05-24T11:09:46.083Z,73.89
2018-05-24T11:12:12.338Z,74.24
2018-05-24T11:14:39.418Z,74.35
2018-05-24T11:17:05.711Z,74.46
2018-05-24T11:19:31.961Z,74.40
2018-05-24T11:21:59.007Z,74.05
2018-05-24T11:24:25.361Z,74.58
2018-05-24T11:26:52.377Z,74.16
2018-05-24T11:29:18.672Z,74.66
2018-05-24T11:31:45.014Z,73.92
2018-05-24T11:34:11.314Z,74.68
2018-05-24T11:36:38.381Z,74.09
2018-05-24T11:39:06.373Z,74.11
2018-05-24T11:41:32.709Z,74.79
2018-05-24T11:43:58.963Z,75.40
2018-05-24T11:46:25.482Z,73.98
2018-05-24T11:48:51.811Z,74.14
2018-05-24T11:51:18.133Z,74.54
2018-05-24T11:53:45.126Z,73.64
2018-05-24T11:56:12.642Z,74.15
2018-05-24T11:58:38.954Z,74.01
2018-05-24T12:01:05.239Z,74.14
2018-05-24T12:03:31.634Z,72.21
2018-05-24T12:05:57.944Z,72.03
2018-05-24T12:08:24.287Z,73.59
2018-05-24T12:10:50.606Z,72.28
2018-05-24T12:13:16.913Z,72.47
2018-05-24T12:15:43.897Z,71.70
2018-05-24T12:18:10.213Z,70.46
2018-05-24T12:20:36.497Z,71.55
2018-05-24T12:23:02.837Z,71.45
2018-05-24T12:25:29.137Z,71.15
2018-05-24T12:27:55.407Z,71.51
2018-05-24T12:30:21.713Z,69.83
2018-05-24T12:32:47.998Z,69.04
2018-05-24T12:35:14.347Z,70.00
2018-05-24T12:37:43.422Z,69.21
2018-05-24T12:40:09.735Z,68.10
2018-05-24T12:42:36.042Z,65.50
2018-05-24T12:45:02.313Z,67.03
2018-05-24T12:47:29.465Z,66.42
2018-05-24T12:49:56.226Z,67.20
2018-05-24T12:52:22.734Z,60.02
2018-05-24T12:54:54.257Z,64.95
2018-05-24T12:57:20.622Z,64.46
2018-05-24T12:59:46.885Z,64.42
2018-05-24T13:02:13.160Z,63.99
2018-05-24T13:04:39.458Z,62.16
2018-05-24T13:07:12.811Z,60.76
2018-05-24T13:09:39.090Z,62.47
2018-05-24T13:12:05.384Z,60.83
2018-05-24T13:14:31.898Z,60.65
2018-05-24T13:16:59.040Z,57.70
2018-05-24T13:19:25.443Z,60.38
2018-05-24T13:21:52.213Z,56.87
2018-05-24T13:24:19.332Z,57.09
2018-05-24T13:26:45.595Z,57.36
2018-05-24T13:29:11.899Z,58.34
2018-05-24T13:31:38.214Z,60.49
2018-05-24T13:34:05.303Z,57.62
2018-05-24T13:36:31.533Z,57.20
2018-05-24T13:38:57.822Z,56.24
2018-05-24T13:41:24.133Z,52.55
2018-05-24T13:43:50.404Z,56.07
2018-05-24T13:46:17.447Z,56.57
2018-05-24T13:48:43.721Z,54.55
2018-05-24T13:51:09.974Z,54.17
2018-05-24T13:53:36.233Z,50.28
2018-05-24T13:56:02.553Z,50.58
2018-05-24T13:58:28.832Z,48.85
2018-05-24T14:00:55.097Z,52.21
2018-05-24T14:03:21.384Z,52.40
2018-05-24T14:05:47.694Z,46.77
2018-05-24T14:08:14.024Z,50.30
2018-05-24T14:10:40.345Z,53.09
2018-05-24T14:13:06.642Z,48.32
2018-05-24T14:15:32.912Z,47.67
2018-05-24T14:17:59.216Z,44.80
2018-05-24T14:20:25.541Z,48.89
2018-05-24T14:22:51.852Z,46.61
2018-05-24T14:25:18.175Z,43.38
2018-05-24T14:27:44.410Z,46.39
2018-05-24T14:30:10.787Z,47.04
2018-05-24T14:32:37.091Z,44.67
2018-05-24T14:35:03.391Z,45.40
2018-05-24T14:37:30.475Z,48.04
2018-05-24T14:39:56.765Z,47.29
2018-05-24T14:42:23.106Z,45.25
2018-05-24T14:44:50.161Z,44.33
2018-05-24T14:47:17.166Z,46.93
2018-05-24T14:49:43.574Z,48.04
2018-05-24T14:52:09.905Z,46.18
2018-05-24T14:54:36.974Z,45.53
2018-05-24T14:57:03.300Z,46.50
2018-05-24T14:59:30.343Z,45.94
2018-05-24T15:02:00.203Z,43.29
2018-05-24T15:04:27.252Z,45.84
2018-05-24T15:06:53.537Z,44.13
2018-05-24T15:09:20.550Z,47.82
2018-05-24T15:11:46.807Z,45.76
2018-05-24T15:14:14.558Z,46.80
2018-05-24T15:16:40.838Z,47.66
2018-05-24T15:19:07.874Z,46.59
2018-05-24T15:21:34.218Z,45.44
2018-05-24T15:24:00.452Z,46.25
2018-05-24T15:26:26.685Z,46.73
2018-05-24T15:28:53.009Z,46.99
2018-05-24T15:31:19.281Z,45.99
2018-05-24T15:33:45.593Z,45.25
2018-05-24T15:36:11.870Z,47.74
2018-05-24T15:38:38.133Z,46.94
2018-05-24T15:41:04.464Z,47.76
2018-05-24T15:43:30.773Z,47.55
2018-05-24T15:45:57.057Z,48.03
2018-05-24T15:48:23.422Z,47.59
2018-05-24T15:50:50.425Z,48.27
2018-05-24T15:53:16.667Z,49.29
2018-05-24T15:55:42.980Z,48.96
2018-05-24T15:58:09.999Z,48.80
2018-05-24T16:00:37.043Z,48.62
2018-05-24T16:03:03.343Z,49.60
2018-05-24T16:05:30.483Z,50.17
2018-05-24T16:07:57.746Z,49.88
2018-05-24T16:10:24.090Z,49.92
2018-05-24T16:12:50.402Z,50.24
2018-05-24T16:15:16.714Z,51.06
2018-05-24T16:17:43.822Z,51.62
2018-05-24T16:20:10.165Z,51.22
2018-05-24T16:22:36.458Z,51.62
2018-05-24T16:25:02.785Z,51.54
2018-05-24T16:27:29.856Z,52.32
2018-05-24T16:29:56.161Z,52.20
2018-05-24T16:32:23.190Z,52.90
2018-05-24T16:34:51.002Z,52.82
2018-05-24T16:37:18.058Z,53.21
2018-05-24T16:39:44.363Z,53.71
2018-05-24T16:42:10.705Z,53.98
2018-05-24T16:44:37.012Z,54.33
2018-05-24T16:47:03.361Z,54.84
2018-05-24T16:49:29.663Z,55.21
2018-05-24T16:51:55.959Z,55.45
2018-05-24T16:54:23.120Z,56.09
2018-05-24T16:56:49.362Z,56.71
2018-05-24T16:59:16.399Z,57.00
2018-05-24T17:01:43.488Z,57.15
2018-05-24T17:04:09.841Z,57.99
2018-05-24T17:06:36.081Z,57.92
2018-05-24T17:09:02.414Z,58.79
2018-05-24T17:11:28.690Z,59.38
2018-05-24T17:13:55.039Z,60.49
2018-05-24T17:16:22.076Z,61.87
2018-05-24T17:18:49.154Z,61.13
2018-05-24T17:21:15.368Z,60.65
2018-05-24T17:23:41.654Z,61.19
2018-05-24T17:26:07.914Z,60.52
2018-05-24T17:28:34.186Z,61.58
2018-05-24T17:31:01.229Z,62.13
2018-05-24T17:33:27.539Z,61.92
2018-05-24T17:35:53.817Z,61.53
2018-05-24T17:38:20.911Z,61.45
2018-05-24T17:40:47.215Z,63.02
2018-05-24T17:43:14.274Z,62.13
2018-05-24T17:45:41.305Z,62.02
2018-05-24T17:48:08.402Z,62.12
2018-05-24T17:50:34.715Z,62.67
2018-05-24T17:53:01.736Z,62.45
2018-05-24T17:55:28.037Z,63.04
2018-05-24T17:57:54.340Z,62.58
2018-05-24T18:00:21.357Z,62.55
2018-05-24T18:02:47.630Z,62.70
2018-05-24T18:05:14.662Z,63.82
2018-05-24T18:07:40.963Z,62.70
2018-05-24T18:10:07.279Z,63.63
2018-05-24T18:12:33.538Z,63.34
2018-05-24T18:14:59.839Z,63.47
2018-05-24T18:17:26.215Z,63.09
2018-05-24T18:19:52.595Z,63.17
2018-05-24T18:22:19.575Z,63.58
2018-05-24T18:24:45.896Z,64.09
2018-05-24T18:27:12.271Z,63.92
2018-05-24T18:29:38.566Z,64.51
2018-05-24T18:32:07.946Z,64.66
2018-05-24T18:34:36.057Z,65.04
2018-05-24T18:37:02.423Z,65.23
2018-05-24T18:39:28.684Z,65.24
2018-05-24T18:41:56.471Z,65.65
2018-05-24T18:44:22.801Z,66.44
2018-05-24T18:46:54.743Z,65.76
2018-05-24T18:49:21.745Z,65.22
2018-05-24T18:51:48.785Z,66.90
2018-05-24T18:54:16.973Z,66.76
2018-05-24T18:56:43.289Z,67.60
2018-05-24T18:59:12.173Z,66.45
2018-05-24T19:01:44.437Z,66.72
2018-05-24T19:04:11.632Z,67.76
2018-05-24T19:06:38.658Z,67.28
2018-05-24T19:09:06.972Z,67.28
2018-05-24T19:11:33.525Z,67.99
2018-05-24T19:13:59.849Z,66.44
2018-05-24T19:16:26.866Z,69.57
2018-05-24T19:18:54.030Z,67.20
2018-05-24T19:21:20.346Z,68.44
2018-05-24T19:23:46.651Z,68.57
2018-05-24T19:26:12.923Z,68.80
2018-05-24T19:28:39.226Z,69.08
2018-05-24T19:31:05.528Z,68.53
2018-05-24T19:33:31.891Z,69.79
2018-05-24T19:35:58.226Z,68.86
2018-05-24T19:38:24.637Z,68.39
2018-05-24T19:40:51.692Z,68.49
2018-05-24T19:43:18.748Z,68.13
2018-05-24T19:45:45.858Z,68.75
2018-05-24T19:48:12.182Z,71.57
2018-05-24T19:50:38.475Z,72.48
2018-05-24T19:53:05.528Z,71.55
2018-05-24T19:55:31.785Z,71.85
2018-05-24T19:57:58.066Z,71.91
2018-05-24T20:00:24.371Z,70.68
2018-05-24T20:02:50.738Z,69.71
2018-05-24T20:05:18.308Z,71.22
2018-05-24T20:07:45.872Z,69.76
2018-05-24T20:10:12.725Z,71.02
2018-05-24T20:12:39.572Z,70.93
2018-05-24T20:15:09.178Z,72.26
2018-05-24T20:17:35.930Z,70.50
2018-05-24T20:20:02.719Z,73.76
2018-05-24T20:22:29.525Z,73.90
2018-05-24T20:24:56.367Z,73.64
2018-05-24T20:27:23.118Z,73.84
2018-05-24T20:29:50.689Z,72.33
2018-05-24T20:32:17.534Z,71.59
2018-05-24T20:34:44.271Z,73.83
2018-05-24T20:37:13.779Z,74.36
2018-05-24T20:39:40.532Z,71.59
2018-05-24T20:42:07.014Z,72.56
2018-05-24T20:44:34.171Z,73.42
2018-05-24T20:47:01.453Z,74.03
2018-05-24T20:49:27.869Z,74.61
2018-05-24T20:51:54.210Z,74.87
2018-05-24T20:54:20.564Z,74.07
2018-05-24T20:56:46.892Z,74.26
2018-05-24T20:59:13.243Z,74.00
2018-05-24T21:01:39.576Z,74.89
2018-05-24T21:04:05.898Z,76.98
2018-05-24T21:06:32.245Z,76.50
2018-05-24T21:08:58.597Z,75.83
2018-05-24T21:11:24.927Z,75.13
2018-05-24T21:13:51.323Z,76.17
2018-05-24T21:16:17.593Z,77.27
2018-05-24T21:18:44.033Z,77.73
2018-05-24T21:21:10.354Z,77.79
2018-05-24T21:23:36.681Z,77.43
2018-05-24T21:26:03.759Z,76.50
2018-05-24T21:28:30.553Z,77.17
2018-05-24T21:30:57.101Z,75.62
2018-05-24T21:33:24.161Z,77.47
2018-05-24T21:35:50.714Z,78.59
2018-05-24T21:38:23.332Z,78.69
2018-05-24T21:40:50.007Z,78.03
2018-05-24T21:43:16.315Z,77.03
2018-05-24T21:45:42.656Z,77.98
2018-05-24T21:48:08.947Z,79.37
2018-05-24T21:50:36.002Z,80.77
2018-05-24T21:53:03.073Z,79.70
2018-05-24T21:55:29.385Z,78.30
2018-05-24T21:57:56.454Z,77.47
2018-05-24T22:00:26.828Z,78.41
2018-05-24T22:02:53.150Z,79.38
2018-05-24T22:05:19.474Z,79.15
2018-05-24T22:07:45.777Z,79.79
2018-05-24T22:10:12.095Z,79.69
2018-05-24T22:12:38.397Z,80.36
2018-05-24T22:15:04.765Z,79.02
2018-05-24T22:17:31.074Z,79.66
2018-05-24T22:19:57.383Z,78.80
2018-05-24T22:22:23.697Z,79.51
2018-05-24T22:24:50.763Z,78.83
2018-05-24T22:27:17.090Z,79.19
2018-05-24T22:29:44.141Z,79.89
2018-05-24T22:32:11.235Z,78.95
2018-05-24T22:34:37.544Z,79.84
2018-05-24T22:37:04.609Z,78.09
2018-05-24T22:39:30.924Z,77.84
2018-05-24T22:41:57.996Z,79.27
2018-05-24T22:44:25.015Z,79.13
2018-05-24T22:46:51.309Z,81.64
2018-05-24T22:49:17.721Z,79.77
2018-05-24T22:51:44.750Z,81.16
2018-05-24T22:54:12.473Z,81.12
2018-05-24T22:56:38.793Z,80.02
2018-05-24T22:59:05.155Z,82.04
2018-05-24T23:01:31.465Z,81.59
2018-05-24T23:03:57.737Z,81.79
2018-05-24T23:06:24.021Z,81.56
2018-05-24T23:08:50.285Z,81.87
2018-05-24T23:11:16.539Z,81.58
2018-05-24T23:13:42.866Z,80.18
2018-05-24T23:16:09.186Z,81.85
2018-05-24T23:18:35.478Z,83.38
2018-05-24T23:21:01.777Z,81.27
2018-05-24T23:23:28.103Z,80.90
2018-05-24T23:25:54.410Z,82.24
2018-05-24T23:28:21.482Z,81.15
2018-05-24T23:30:47.774Z,82.32
2018-05-24T23:33:14.027Z,81.50
2018-05-24T23:35:41.078Z,80.57
2018-05-24T23:38:08.084Z,79.95
2018-05-24T23:40:34.344Z,78.24
2018-05-24T23:43:00.664Z,80.85
2018-05-24T23:45:26.976Z,80.79
2018-05-24T23:47:53.263Z,80.79
2018-05-24T23:50:19.543Z,81.73
2018-05-24T23:52:45.833Z,82.80
2018-05-24T23:55:12.106Z,83.85
2018-05-24T23:57:38.391Z,83.00
